In Rescue
 
Open Full Screen Window  High Contrast Mode
Wind Gusting 00 knots
06
May 25, 2022 10:37 PM EDT
Weather Information
Wind Direction
  160 °
Wind Speed
  06 kt (7 mph)
Wind Gust
  00 kt (0 mph)
Altimeter
29.88 in
Visibility
10 SM
Temperature
19° C
66° F
Dewpoint
18° C
64° F
Humidity
94%
1hr Rain Fall
00.02 in.
24hr Rain Fall
00.54 in.
Sky Condition
Broken @ 12,000 ft
Scattered @ 4,400 ft
VFR

METAR KIRS 260237Z AUTO 16006KT 10SM SCT044 BKN120 19/18 A2988 RMK AO2 T01920179 P0002

FAA Disclaimer: The data displayed is for advisory purposes only and is not to be used for flight planning or operations.